WIMMWIBB

Guest
Details From WIMM - Medan/Polonia
To WIBB - Pekanbaru Sultan Syarif Kasim II
Flight Number -
Tags generated
Created
Modified
Stats Distance 258 nm / 478 km
Max Altitude 23,500 ft / 7,163 m
Waypoints 4
Social Downloads 0
Likes 0
Share VATSIM

Download

Looking for another format? Having issues loading an existing format? Contact us
Advertisement - Login to hide

Notes

Basic altitude profile: - Ascent Rate: 2500ft/min - Ascent Speed: 250kts - Cruise Altitude: 35000ft - Cruise Speed: 420kts - Descent Rate: 1500ft/min - Descent Speed: 250kts Options: - Use NATs: yes - Use PACOTS: yes - Use low airways: yes - Use high airways: yes

Route

WIMM MDN A585 PKU WIBB

ID Type Via Altitude Latitude Longitude Leg Dist Tot Dist Heading (true) Name
O WIMM APT - 0 ft / 0 m 3.55806˚ 98.67172˚ - 0 nm - Medan/Polonia
MDN VOR - 1,700 ft / 518 m 3.50455˚ 98.60775˚ 5 nm 5 nm 230° / 230° MEDAN VOR-DME
PKU VOR A585 (AWY-LO) 23,500 ft / 7,163 m 0.42559˚ 101.44149˚ 251 nm 256 nm 137° / 137° PEKANBARU VOR-DME
O WIBB APT - 0 ft / 0 m 0.46078˚ 101.44454˚ 2 nm 258 nm 5° / 5° Pekanbaru Sultan Syarif Kasim II

Altitude Profile

Advertisement - Login to hide

Weather


0- 5 10 15 20 25 30 35+ Temperature / ° C

Clouds and Precipitation
Forecast for 2017-12-18 06:00 UTC. Updated 2 hours ago

Ground ~20,000 ft ~40,000 ft Winds

WIMM

Details ICAO WIMM (MES)
Name Medan/Polonia
Region Indonesia
Timezone Asia/Jakarta (UTC+7.0)
Stats Elevation 90 ft / 27 m (AMSL)
Location 3.558057° 98.671716°
Runways 1
Magnetic Variation 0.321° W

METAR

WIMM 180430Z 35009KT 9999 FEW018 30/23 Q1012

Decode

TAF

TAF TAF WIMM 172300Z 1800/1824 23005KT 4000 HZ FEW018 BECMG 1802/1804 33010KT 9000 FEW017CB SCT018 BECMG 1810/1812 VRB05KT 4500 HZ SCT018

Decode

Departure Runways

ID Width Length Bearing (true) Bearing (mag) Surface Threshold Offset Overrun Length
05 148 ft / 45 m 9,531 ft / 2,905 m 46.55° 46.87° Asphalt 910 ft / 277 m 197 ft / 60 m
23 148 ft / 45 m 9,531 ft / 2,905 m 226.55° 226.87° Asphalt 0 ft / 0 m 325 ft / 99 m

WIBB

Details ICAO WIBB (PKU)
Name Pekanbaru Sultan Syarif Kasim II
Region Indonesia
Timezone Asia/Jakarta (UTC+7.0)
Stats Elevation 102 ft / 31 m (AMSL)
Location 0.460784° 101.444537°
Runways 1
Magnetic Variation 0.037° E

METAR

WIBB 180430Z 04008KT 9999 SCT015 30/24 Q1011

Decode

TAF

Not found

Destination Runways

ID Width Length Bearing (true) Bearing (mag) Surface Threshold Offset Overrun Length
18 98 ft / 30 m 7,373 ft / 2,247 m 181.66° 181.62° Asphalt 0 ft / 0 m 200 ft / 61 m
36 98 ft / 30 m 7,373 ft / 2,247 m 1.66° 1.62° Asphalt 0 ft / 0 m 200 ft / 61 m

Approach Navaids

Runway Type Ident Frequency Range Bearing (true) Bearing (mag) Slope Elevation
36 Localiser IPKU 111.10 MHz 18 nm / 33 km 1.44° 1.40° - 102 ft / 31 m (AMSL)
36 Glidescope IPKU 111.10 MHz 10 nm / 19 km 1.67° 1.63° 3.00° 87 ft / 27 m (AMSL)
36 DME IPKU 111.10 MHz 18 nm / 33 km - - - 102 ft / 31 m (AMSL)

Popular Alternatives